| time (UTC) | temp C | wind direction | speed KPH | gust KPH | rain 1hr cm | rain 24hr cm | rain mn cm | humidity % | barometer mb |
| 20260509011223 | 13 | 259 | 0.0 | 0.0 | 0.00 | 0.00 | 0.00 | 66 | 1007.4 |
| 20260509010228 | 14 | 260 | 0.0 | 0.0 | 0.00 | 0.00 | 0.00 | 64 | 1007.4 |
| 20260509005218 | 14 | 260 | 0.0 | 0.0 | 0.00 | 0.00 | 0.00 | 61 | 1007.2 |
| 20260509004228 | 15 | 262 | 0.0 | 1.6 | 0.00 | 0.00 | 0.00 | 56 | 1007.1 |
| 20260509003223 | 15 | 239 | 0.0 | 3.2 | 0.00 | 0.00 | 0.00 | 52 | 1007.1 |
| 20260509002214 | 15 | 270 | 0.0 | 4.8 | 0.00 | 0.00 | 0.00 | 49 | 1007.0 |
| 20260509001223 | 16 | 256 | 0.0 | 1.6 | 0.00 | 0.00 | 0.00 | 49 | 1006.9 |
| 20260509000211 | 16 | 263 | 0.0 | 3.2 | 0.00 | 0.00 | 0.00 | 48 | 1007.0 |
| 20260508235240 | 16 | 259 | 0.0 | 1.6 | 0.00 | 0.00 | 0.00 | 48 | 1007.0 |
| 20260508234210 | 16 | 259 | 0.0 | 1.6 | 0.00 | 0.00 | 0.00 | 47 | 1007.0 |
| 20260508233221 | 17 | 210 | 0.0 | 3.2 | 0.00 | 0.00 | 0.00 | 45 | 1006.9 |
| 20260508232233 | 17 | 257 | 0.0 | 8.0 | 0.00 | 0.00 | 0.00 | 43 | 1006.9 |
| 20260508231247 | 18 | 248 | 0.0 | 6.4 | 0.00 | 0.00 | 0.00 | 37 | 1006.9 |
| 20260508230231 | 17 | 297 | 1.6 | 4.8 | 0.00 | 0.00 | 0.00 | 39 | 1007.0 |
| 20260508225220 | 17 | 278 | 0.0 | 8.0 | 0.00 | 0.00 | 0.00 | 40 | 1007.1 |
| 20260508224210 | 17 | 253 | 1.6 | 12.9 | 0.00 | 0.00 | 0.00 | 40 | 1007.1 |
| 20260508223226 | 17 | 311 | 0.0 | 9.7 | 0.00 | 0.00 | 0.00 | 41 | 1007.1 |
| 20260508222237 | 17 | 307 | 1.6 | 8.0 | 0.00 | 0.00 | 0.00 | 41 | 1007.2 |
| 20260508221227 | 18 | 266 | 1.6 | 6.4 | 0.00 | 0.00 | 0.00 | 40 | 1007.2 |
| 20260508220229 | 18 | 271 | 0.0 | 3.2 | 0.00 | 0.00 | 0.00 | 43 | 1007.1 |
| 20260508215223 | 17 | 257 | 0.0 | 1.6 | 0.00 | 0.00 | 0.00 | 43 | 1007.4 |
| 20260508214214 | 17 | 277 | 4.8 | 11.3 | 0.00 | 0.00 | 0.00 | 40 | 1007.3 |
| 20260508213245 | 17 | 248 | 3.2 | 4.8 | 0.00 | 0.00 | 0.00 | 43 | 1007.4 |
| 20260508212215 | 18 | 271 | 0.0 | 3.2 | 0.00 | 0.00 | 0.00 | 41 | 1007.4 |
| 20260508211229 | 18 | 255 | 0.0 | 4.8 | 0.00 | 0.00 | 0.00 | 41 | 1007.4 |
| 20260508210213 | 18 | 224 | 0.0 | 6.4 | 0.00 | 0.00 | 0.00 | 40 | 1007.6 |
| 20260508205224 | 18 | 274 | 1.6 | 8.0 | 0.00 | 0.00 | 0.00 | 40 | 1007.5 |
| 20260508204214 | 19 | 267 | 1.6 | 8.0 | 0.00 | 0.00 | 0.00 | 38 | 1007.8 |
| 20260508203209 | 18 | 253 | 1.6 | 16.1 | 0.00 | 0.00 | 0.00 | 39 | 1007.7 |
| 20260508202220 | 18 | 262 | 1.6 | 11.3 | 0.00 | 0.00 | 0.00 | 40 | 1008.0 |
| 20260508201210 | 18 | 260 | 0.0 | 3.2 | 0.00 | 0.00 | 0.00 | 38 | 1008.2 |
| 20260508200211 | 18 | 295 | 3.2 | 8.0 | 0.00 | 0.00 | 0.00 | 38 | 1008.5 |
| 20260508195228 | 17 | 240 | 1.6 | 8.0 | 0.00 | 0.00 | 0.00 | 38 | 1008.5 |
| 20260508194218 | 18 | 296 | 4.8 | 19.3 | 0.00 | 0.00 | 0.00 | 38 | 1008.7 |
| 20260508193209 | 17 | 212 | 0.0 | 3.2 | 0.00 | 0.00 | 0.00 | 42 | 1008.8 |
| 20260508192223 | 17 | 268 | 0.0 | 12.9 | 0.00 | 0.00 | 0.00 | 39 | 1009.0 |
| 20260508191214 | 17 | 133 | 0.0 | 3.2 | 0.00 | 0.00 | 0.00 | 43 | 1009.2 |
| 20260508190216 | 17 | 247 | 0.0 | 8.0 | 0.00 | 0.00 | 0.00 | 44 | 1009.3 |
| 20260508185245 | 17 | 247 | 0.0 | 4.8 | 0.00 | 0.00 | 0.00 | 41 | 1009.4 |
| 20260508184219 | 16 | 300 | 1.6 | 4.8 | 0.00 | 0.00 | 0.00 | 43 | 1009.6 |
| 20260508183210 | 16 | 255 | 1.6 | 17.7 | 0.00 | 0.00 | 0.00 | 42 | 1009.7 |
| 20260508182221 | 16 | 267 | 1.6 | 14.5 | 0.00 | 0.00 | 0.00 | 40 | 1009.7 |
| 20260508181232 | 16 | 291 | 1.6 | 11.3 | 0.00 | 0.00 | 0.00 | 40 | 1009.8 |
| 20260508180214 | 16 | 314 | 1.6 | 11.3 | 0.00 | 0.00 | 0.00 | 38 | 1010.1 |
| 20260508175223 | 16 | 246 | 3.2 | 11.3 | 0.00 | 0.00 | 0.00 | 38 | 1010.3 |
| 20260508174232 | 16 | 260 | 0.0 | 11.3 | 0.00 | 0.00 | 0.00 | 44 | 1010.4 |
| 20260508173221 | 16 | 305 | 3.2 | 12.9 | 0.00 | 0.00 | 0.00 | 40 | 1010.6 |
| 20260508172217 | 16 | 349 | 3.2 | 8.0 | 0.00 | 0.00 | 0.00 | 43 | 1010.7 |
| 20260508171227 | 15 | 267 | 1.6 | 8.0 | 0.00 | 0.00 | 0.00 | 45 | 1010.9 |
| 20260508170246 | 15 | 82 | 0.0 | 6.4 | 0.00 | 0.00 | 0.00 | 40 | 1011.0 |
| 20260508165216 | 15 | 283 | 6.4 | 16.1 | 0.00 | 0.00 | 0.00 | 46 | 1011.2 |
| 20260508164210 | 15 | 119 | 0.0 | 4.8 | 0.00 | 0.00 | 0.00 | 45 | 1011.3 |
| 20260508163221 | 15 | 257 | 0.0 | 6.4 | 0.00 | 0.00 | 0.00 | 45 | 1011.4 |
| 20260508162232 | 14 | 344 | 3.2 | 8.0 | 0.00 | 0.00 | 0.00 | 42 | 1011.6 |
| 20260508161222 | 15 | 281 | 3.2 | 8.0 | 0.00 | 0.00 | 0.00 | 45 | 1011.8 |
| 20260508160210 | 15 | 262 | 1.6 | 9.7 | 0.00 | 0.00 | 0.00 | 49 | 1011.8 |
| 20260508155242 | 15 | 330 | 3.2 | 8.0 | 0.00 | 0.00 | 0.00 | 44 | 1011.7 |
| 20260508154210 | 15 | 332 | 1.6 | 8.0 | 0.00 | 0.00 | 0.00 | 44 | 1011.8 |
| 20260508153222 | 15 | 284 | 3.2 | 8.0 | 0.00 | 0.00 | 0.00 | 46 | 1011.8 |
| 20260508152217 | 14 | 163 | 0.0 | 1.6 | 0.00 | 0.00 | 0.00 | 50 | 1012.0 |
| 20260508151247 | 13 | 241 | 0.0 | 8.0 | 0.00 | 0.00 | 0.00 | 51 | 1012.0 |
| 20260508150210 | 13 | 285 | 1.6 | 6.4 | 0.00 | 0.00 | 0.00 | 49 | 1012.1 |
| 20260508145222 | 13 | 113 | 1.6 | 3.2 | 0.00 | 0.00 | 0.00 | 51 | 1012.2 |
| 20260508144217 | 13 | 91 | 0.0 | 1.6 | 0.00 | 0.00 | 0.00 | 52 | 1012.2 |
| 20260508143228 | 12 | 133 | 0.0 | 3.2 | 0.00 | 0.00 | 0.00 | 54 | 1012.3 |
| 20260508142220 | 12 | 336 | 0.0 | 4.8 | 0.00 | 0.00 | 0.00 | 57 | 1012.4 |
| 20260508141210 | 12 | 333 | 0.0 | 3.2 | 0.00 | 0.00 | 0.00 | 58 | 1012.4 |
| 20260508140219 | 11 | 269 | 0.0 | 3.2 | 0.00 | 0.00 | 0.00 | 63 | 1012.5 |
| 20260508135249 | 11 | 43 | 0.0 | 1.6 | 0.00 | 0.00 | 0.00 | 67 | 1012.6 |
| 20260508134219 | 11 | 101 | 0.0 | 1.6 | 0.00 | 0.00 | 0.00 | 67 | 1012.6 |
| 20260508133230 | 10 | 86 | 0.0 | 1.6 | 0.00 | 0.00 | 0.00 | 72 | 1012.7 |
| 20260508132240 | 10 | 76 | 1.6 | 3.2 | 0.00 | 0.00 | 0.00 | 71 | 1012.6 |
| 20260508131213 | 9 | 98 | 0.0 | 1.6 | 0.00 | 0.00 | 0.00 | 73 | 1012.6 |
| 20260508130218 | 8 | 251 | 0.0 | 1.6 | 0.00 | 0.00 | 0.00 | 76 | 1012.7 |
| 20260508125209 | 8 | 267 | 0.0 | 1.6 | 0.00 | 0.00 | 0.00 | 79 | 1012.6 |
| 20260508124224 | 8 | 98 | 0.0 | 1.6 | 0.00 | 0.00 | 0.00 | 78 | 1012.6 |
| 20260508123215 | 7 | 96 | 0.0 | 1.6 | 0.00 | 0.00 | 0.00 | 79 | 1012.5 |
| 20260508122226 | 7 | 92 | 0.0 | 1.6 | 0.00 | 0.00 | 0.00 | 79 | 1012.5 |
| 20260508121216 | 6 | 98 | 0.0 | 1.6 | 0.00 | 0.00 | 0.00 | 82 | 1012.4 |
| 20260508120224 | 6 | 98 | 0.0 | 1.6 | 0.00 | 0.00 | 0.00 | 86 | 1012.4 |
| 20260508115216 | 5 | 110 | 0.0 | 1.6 | 0.00 | 0.00 | 0.00 | 93 | 1012.2 |
| 20260508114246 | 3 | 335 | 0.0 | 0.0 | 0.00 | 0.00 | 0.00 | 94 | 1012.1 |
| 20260508113216 | 3 | 336 | 0.0 | 0.0 | 0.00 | 0.00 | 0.00 | 94 | 1012.0 |
| 20260508112212 | 3 | 336 | 526.3 | 0.0 | 0.00 | 0.00 | 0.00 | 94 | 1011.9 |
| 20260508111222 | -17 | 0.0 | 0.0 | 0.00 | 0.00 | 0.00 | 1011.8 | ||
| 20260508110227 | -17 | 0.0 | 0.0 | 0.00 | 0.00 | 0.00 | 1011.8 | ||
| 20260508105338 | -17 | 0.0 | 0.0 | 0.00 | 0.00 | 0.00 | 1011.8 | ||
| 20260508104219 | -17 | 0.0 | 0.0 | 0.00 | 0.00 | 0.00 | 1011.6 | ||
| 20260508103214 | -17 | 0.0 | 0.0 | 0.00 | 0.00 | 0.00 | 1011.6 | ||
| 20260508102226 | -17 | 0.0 | 0.0 | 0.00 | 0.00 | 0.00 | 1011.6 | ||
| 20260508101216 | -17 | 0.0 | 0.0 | 0.00 | 0.00 | 0.00 | 1011.6 | ||
| 20260508100227 | -17 | 0.0 | 0.0 | 0.00 | 0.00 | 0.00 | 1011.5 | ||
| 20260508095222 | -17 | 0.0 | 0.0 | 0.00 | 0.00 | 0.00 | 1011.6 | ||
| 20260508094213 | -17 | 0.0 | 0.0 | 0.00 | 0.00 | 0.00 | 1011.5 | ||
| 20260508093224 | 2 | 335 | 0.0 | 0.0 | 0.00 | 0.00 | 0.00 | 91 | 1011.6 |
| 20260508092215 | 3 | 336 | 0.0 | 0.0 | 0.00 | 0.00 | 0.00 | 91 | 1011.7 |
| 20260508091209 | 3 | 336 | 0.0 | 0.0 | 0.00 | 0.00 | 0.00 | 91 | 1011.7 |
| 20260508090213 | 3 | 336 | 0.0 | 0.0 | 0.00 | 0.00 | 0.00 | 91 | 1011.7 |
| 20260508085245 | 3 | 336 | 0.0 | 0.0 | 0.00 | 0.00 | 0.00 | 90 | 1011.7 |
| 20260508084234 | 3 | 336 | 0.0 | 0.0 | 0.00 | 0.00 | 0.00 | 90 | 1011.7 |
| 20260508083243 | 4 | 336 | 0.0 | 0.0 | 0.00 | 0.00 | 0.00 | 90 | 1011.7 |
| 20260508082217 | 4 | 336 | 0.0 | 0.0 | 0.00 | 0.00 | 0.00 | 89 | 1011.8 |
| 20260508081226 | 5 | 336 | 0.0 | 0.0 | 0.00 | 0.00 | 0.00 | 88 | 1011.7 |
| 20260508080211 | 5 | 336 | 0.0 | 0.0 | 0.00 | 0.00 | 0.00 | 88 | 1011.8 |
| 20260508075227 | 5 | 336 | 0.0 | 0.0 | 0.00 | 0.00 | 0.00 | 89 | 1011.7 |
| 20260508074218 | 5 | 336 | 0.0 | 0.0 | 0.00 | 0.00 | 0.00 | 89 | 1011.7 |
| 20260508073209 | 5 | 336 | 0.0 | 0.0 | 0.00 | 0.00 | 0.00 | 90 | 1012.0 |
| 20260508072221 | 5 | 336 | 0.0 | 0.0 | 0.00 | 0.00 | 0.00 | 91 | 1012.0 |
| 20260508070229 | 5 | 336 | 0.0 | 0.0 | 0.00 | 0.00 | 0.00 | 90 | 1012.0 |
| 20260508065239 | 5 | 336 | 0.0 | 0.0 | 0.00 | 0.00 | 0.00 | 90 | 1012.0 |
| 20260508064228 | 5 | 336 | 0.0 | 0.0 | 0.00 | 0.00 | 0.00 | 90 | 1011.9 |
| 20260508063220 | 5 | 336 | 0.0 | 0.0 | 0.00 | 0.00 | 0.00 | 89 | 1011.9 |
| 20260508062215 | 5 | 336 | 0.0 | 0.0 | 0.00 | 0.00 | 0.00 | 89 | 1012.0 |
| 20260508061226 | 4 | 336 | 0.0 | 0.0 | 0.00 | 0.00 | 0.00 | 88 | 1012.0 |
| 20260508060210 | 4 | 336 | 0.0 | 0.0 | 0.00 | 0.00 | 0.00 | 87 | 1012.1 |
| 20260508055224 | 5 | 336 | 0.0 | 0.0 | 0.00 | 0.00 | 0.00 | 87 | 1012.1 |
| 20260508054235 | 5 | 336 | 0.0 | 0.0 | 0.00 | 0.00 | 0.00 | 86 | 1012.1 |
| 20260508053224 | 5 | 336 | 0.0 | 0.0 | 0.00 | 0.00 | 0.00 | 85 | 1012.1 |
| 20260508052215 | 5 | 336 | 0.0 | 0.0 | 0.00 | 0.00 | 0.00 | 82 | 1012.1 |
| 20260508051209 | 6 | 336 | 0.0 | 0.0 | 0.00 | 0.00 | 0.00 | 81 | 1012.3 |
| 20260508050214 | 6 | 336 | 0.0 | 0.0 | 0.00 | 0.00 | 0.00 | 79 | 1012.1 |
| 20260508045226 | 7 | 336 | 0.0 | 1.6 | 0.00 | 0.00 | 0.00 | 77 | 1012.1 |
| 20260508044216 | 7 | 336 | 0.0 | 0.0 | 0.00 | 0.00 | 0.00 | 74 | 1012.3 |
| 20260508043211 | 8 | 338 | 0.0 | 1.6 | 0.00 | 0.00 | 0.00 | 71 | 1012.2 |
| 20260508042243 | 9 | 82 | 0.0 | 9.7 | 0.00 | 0.00 | 0.00 | 66 | 1012.2 |
| 20260508041213 | 9 | 311 | 1.6 | 4.8 | 0.00 | 0.00 | 0.00 | 65 | 1012.4 |
| 20260508040217 | 8 | 318 | 0.0 | 1.6 | 0.00 | 0.00 | 0.00 | 65 | 1011.9 |
| 20260508035211 | 8 | 276 | 0.0 | 1.6 | 0.00 | 0.00 | 0.00 | 64 | 1011.9 |
| 20260508034222 | 8 | 276 | 0.0 | 0.0 | 0.00 | 0.00 | 0.00 | 63 | 1011.8 |
| 20260508033233 | 9 | 276 | 0.0 | 0.0 | 0.00 | 0.00 | 0.00 | 61 | 1012.0 |
| 20260508032223 | 10 | 276 | 0.0 | 0.0 | 0.00 | 0.00 | 0.00 | 61 | 1011.9 |
| 20260508031220 | 10 | 275 | 0.0 | 1.6 | 0.00 | 0.00 | 0.00 | 60 | 1012.2 |
| 20260508030223 | 10 | 277 | 0.0 | 1.6 | 0.00 | 0.00 | 0.00 | 59 | 1012.3 |
| 20260508025213 | 10 | 263 | 0.0 | 1.6 | 0.00 | 0.00 | 0.00 | 59 | 1012.5 |
| 20260508024224 | 10 | 276 | 0.0 | 1.6 | 0.00 | 0.00 | 0.00 | 59 | 1012.4 |
| 20260508023220 | 10 | 263 | 1.6 | 4.8 | 0.00 | 0.00 | 0.00 | 59 | 1012.4 |
| 20260508022212 | 9 | 291 | 0.0 | 1.6 | 0.00 | 0.00 | 0.00 | 58 | 1012.2 |
| 20260508021222 | 9 | 305 | 0.0 | 0.0 | 0.00 | 0.00 | 0.00 | 58 | 1012.3 |
| 20260508020209 | 9 | 305 | 0.0 | 0.0 | 0.00 | 0.00 | 0.00 | 59 | 1012.2 |
| 20260508015220 | 10 | 305 | 0.0 | 0.0 | 0.00 | 0.00 | 0.00 | 56 | 1012.2 |
| 20260508014212 | 10 | 305 | 0.0 | 1.6 | 0.00 | 0.00 | 0.00 | 55 | 1012.1 |
| 20260508013222 | 10 | 311 | 0.0 | 1.6 | 0.00 | 0.00 | 0.00 | 53 | 1011.9 |
| 20260508012217 | 10 | 290 | 0.0 | 0.0 | 0.00 | 0.00 | 0.00 | 52 | 1011.8 |